Mahanoy Plane, Pennsylvania
Current Conditions -  °F | °C
As of 5:15 PM on Thursday 18 Dec 2014 (Local Time) from KHZL Reporting Station
Overcast Overcast  
Wind Chill: 24°   Ceiling: 2100
Heat Index: 32°   Visibility: 10mi
Dew Point: 27°   Wind: 10mph
Humidity: 80%   Direction: 280°W
Pressure: 30"   Gusts: 21mph
Location:  40.79°N, 76.24°W
Report Text: KHZL 182215Z AUTO 28009G18KT 10SM OVC021 00/M03 A3000 RMK AO2
Loading
Personal Weather Stations






























Interactive Weather Map New forecast layout! Learn more

10-Day Weather Forecast

Advertisements
Track Severe Weather on mobile